sensor_id;sensor_type;location;lat;lon;timestamp;P1;durP1;ratioP1;P2;durP2;ratioP2
36551;SDS011;22559;54.176;12.102;2024-03-22T00:01:48;24.20;;;11.93;;
36551;SDS011;22559;54.176;12.102;2024-03-22T00:04:15;19.43;;;11.83;;
36551;SDS011;22559;54.176;12.102;2024-03-22T00:06:41;22.67;;;11.80;;
36551;SDS011;22559;54.176;12.102;2024-03-22T00:09:08;25.60;;;12.47;;
36551;SDS011;22559;54.176;12.102;2024-03-22T00:11:34;25.70;;;12.53;;
36551;SDS011;22559;54.176;12.102;2024-03-22T00:14:01;31.87;;;12.97;;
36551;SDS011;22559;54.176;12.102;2024-03-22T00:16:27;20.17;;;12.07;;
36551;SDS011;22559;54.176;12.102;2024-03-22T00:18:52;23.80;;;12.57;;
36551;SDS011;22559;54.176;12.102;2024-03-22T00:21:18;23.97;;;12.50;;
36551;SDS011;22559;54.176;12.102;2024-03-22T00:23:44;27.37;;;13.57;;
36551;SDS011;22559;54.176;12.102;2024-03-22T00:26:10;27.57;;;13.17;;
36551;SDS011;22559;54.176;12.102;2024-03-22T00:28:36;30.23;;;14.20;;
36551;SDS011;22559;54.176;12.102;2024-03-22T00:31:02;29.97;;;13.87;;
36551;SDS011;22559;54.176;12.102;2024-03-22T00:33:27;23.73;;;12.60;;
36551;SDS011;22559;54.176;12.102;2024-03-22T00:35:53;23.67;;;13.00;;
36551;SDS011;22559;54.176;12.102;2024-03-22T00:38:19;20.30;;;13.20;;
36551;SDS011;22559;54.176;12.102;2024-03-22T00:40:44;27.50;;;12.83;;
36551;SDS011;22559;54.176;12.102;2024-03-22T00:43:10;23.77;;;13.53;;
36551;SDS011;22559;54.176;12.102;2024-03-22T00:45:36;25.57;;;12.47;;
36551;SDS011;22559;54.176;12.102;2024-03-22T00:48:01;29.07;;;14.07;;
36551;SDS011;22559;54.176;12.102;2024-03-22T00:50:27;26.47;;;14.73;;
36551;SDS011;22559;54.176;12.102;2024-03-22T00:52:53;28.17;;;14.37;;
36551;SDS011;22559;54.176;12.102;2024-03-22T00:55:22;24.07;;;13.77;;
36551;SDS011;22559;54.176;12.102;2024-03-22T00:57:48;26.30;;;12.90;;
36551;SDS011;22559;54.176;12.102;2024-03-22T01:00:14;31.43;;;13.43;;
36551;SDS011;22559;54.176;12.102;2024-03-22T01:02:40;30.73;;;13.63;;
36551;SDS011;22559;54.176;12.102;2024-03-22T01:05:06;25.63;;;13.60;;
36551;SDS011;22559;54.176;12.102;2024-03-22T01:07:32;23.97;;;13.83;;
36551;SDS011;22559;54.176;12.102;2024-03-22T01:09:58;24.57;;;14.27;;
36551;SDS011;22559;54.176;12.102;2024-03-22T01:12:25;27.17;;;14.50;;
36551;SDS011;22559;54.176;12.102;2024-03-22T01:14:50;24.57;;;13.87;;
36551;SDS011;22559;54.176;12.102;2024-03-22T01:17:16;31.23;;;14.67;;
36551;SDS011;22559;54.176;12.102;2024-03-22T01:19:42;33.10;;;14.80;;
36551;SDS011;22559;54.176;12.102;2024-03-22T01:22:07;27.97;;;14.07;;
36551;SDS011;22559;54.176;12.102;2024-03-22T01:24:33;26.33;;;13.63;;
36551;SDS011;22559;54.176;12.102;2024-03-22T01:26:58;22.50;;;12.83;;
36551;SDS011;22559;54.176;12.102;2024-03-22T01:29:24;27.17;;;14.23;;
36551;SDS011;22559;54.176;12.102;2024-03-22T01:31:50;25.97;;;13.97;;
36551;SDS011;22559;54.176;12.102;2024-03-22T01:34:15;24.17;;;13.03;;
36551;SDS011;22559;54.176;12.102;2024-03-22T01:36:41;30.93;;;13.70;;
36551;SDS011;22559;54.176;12.102;2024-03-22T01:39:07;23.97;;;13.27;;
36551;SDS011;22559;54.176;12.102;2024-03-22T01:41:32;23.33;;;12.83;;
36551;SDS011;22559;54.176;12.102;2024-03-22T01:43:58;26.33;;;13.13;;
36551;SDS011;22559;54.176;12.102;2024-03-22T01:46:23;25.23;;;13.90;;
36551;SDS011;22559;54.176;12.102;2024-03-22T01:48:49;21.80;;;13.17;;
36551;SDS011;22559;54.176;12.102;2024-03-22T01:51:16;25.40;;;13.37;;
36551;SDS011;22559;54.176;12.102;2024-03-22T01:53:42;28.33;;;13.40;;
36551;SDS011;22559;54.176;12.102;2024-03-22T01:56:08;22.40;;;13.23;;
36551;SDS011;22559;54.176;12.102;2024-03-22T01:58:34;30.43;;;13.90;;
36551;SDS011;22559;54.176;12.102;2024-03-22T02:01:00;24.17;;;13.03;;
36551;SDS011;22559;54.176;12.102;2024-03-22T02:03:26;25.00;;;13.33;;
36551;SDS011;22559;54.176;12.102;2024-03-22T02:05:52;21.37;;;12.13;;
36551;SDS011;22559;54.176;12.102;2024-03-22T02:08:18;28.80;;;13.17;;
36551;SDS011;22559;54.176;12.102;2024-03-22T02:10:44;23.27;;;13.10;;
36551;SDS011;22559;54.176;12.102;2024-03-22T02:13:10;26.87;;;13.70;;
36551;SDS011;22559;54.176;12.102;2024-03-22T02:15:36;24.30;;;12.23;;
36551;SDS011;22559;54.176;12.102;2024-03-22T02:18:01;23.77;;;13.07;;
36551;SDS011;22559;54.176;12.102;2024-03-22T02:20:27;25.00;;;12.80;;
36551;SDS011;22559;54.176;12.102;2024-03-22T02:22:52;26.63;;;12.37;;
36551;SDS011;22559;54.176;12.102;2024-03-22T02:25:18;26.27;;;13.67;;
36551;SDS011;22559;54.176;12.102;2024-03-22T02:27:44;22.30;;;12.27;;
36551;SDS011;22559;54.176;12.102;2024-03-22T02:30:09;23.30;;;13.10;;
36551;SDS011;22559;54.176;12.102;2024-03-22T02:32:35;27.33;;;12.70;;
36551;SDS011;22559;54.176;12.102;2024-03-22T02:35:03;20.93;;;11.90;;
36551;SDS011;22559;54.176;12.102;2024-03-22T02:37:29;23.43;;;12.00;;
36551;SDS011;22559;54.176;12.102;2024-03-22T02:39:54;24.47;;;12.60;;
36551;SDS011;22559;54.176;12.102;2024-03-22T02:42:20;20.80;;;12.43;;
36551;SDS011;22559;54.176;12.102;2024-03-22T02:44:45;22.93;;;11.47;;
36551;SDS011;22559;54.176;12.102;2024-03-22T02:47:11;20.23;;;11.77;;
36551;SDS011;22559;54.176;12.102;2024-03-22T02:49:39;22.47;;;12.27;;
36551;SDS011;22559;54.176;12.102;2024-03-22T02:52:05;21.33;;;11.67;;
36551;SDS011;22559;54.176;12.102;2024-03-22T02:54:31;20.07;;;12.03;;
36551;SDS011;22559;54.176;12.102;2024-03-22T02:56:56;24.23;;;12.07;;
36551;SDS011;22559;54.176;12.102;2024-03-22T02:59:25;24.17;;;12.37;;
36551;SDS011;22559;54.176;12.102;2024-03-22T03:01:51;22.20;;;11.63;;
36551;SDS011;22559;54.176;12.102;2024-03-22T03:04:17;21.97;;;11.80;;
36551;SDS011;22559;54.176;12.102;2024-03-22T03:06:43;19.63;;;12.20;;
36551;SDS011;22559;54.176;12.102;2024-03-22T03:09:10;20.83;;;11.43;;
36551;SDS011;22559;54.176;12.102;2024-03-22T03:11:37;23.53;;;12.20;;
36551;SDS011;22559;54.176;12.102;2024-03-22T03:14:04;21.57;;;12.03;;
36551;SDS011;22559;54.176;12.102;2024-03-22T03:16:30;17.90;;;11.00;;
36551;SDS011;22559;54.176;12.102;2024-03-22T03:18:55;21.63;;;11.07;;
36551;SDS011;22559;54.176;12.102;2024-03-22T03:21:21;21.90;;;11.90;;
36551;SDS011;22559;54.176;12.102;2024-03-22T03:23:46;18.93;;;11.23;;
36551;SDS011;22559;54.176;12.102;2024-03-22T03:26:12;19.67;;;11.77;;
36551;SDS011;22559;54.176;12.102;2024-03-22T03:28:38;19.23;;;12.00;;
36551;SDS011;22559;54.176;12.102;2024-03-22T03:31:04;23.93;;;11.37;;
36551;SDS011;22559;54.176;12.102;2024-03-22T03:33:30;20.13;;;10.83;;
36551;SDS011;22559;54.176;12.102;2024-03-22T03:35:55;20.23;;;11.30;;
36551;SDS011;22559;54.176;12.102;2024-03-22T03:38:21;18.50;;;11.00;;
36551;SDS011;22559;54.176;12.102;2024-03-22T03:40:47;20.30;;;11.70;;
36551;SDS011;22559;54.176;12.102;2024-03-22T03:43:13;20.17;;;10.27;;
36551;SDS011;22559;54.176;12.102;2024-03-22T03:45:38;18.20;;;10.20;;
36551;SDS011;22559;54.176;12.102;2024-03-22T03:48:04;19.57;;;10.93;;
36551;SDS011;22559;54.176;12.102;2024-03-22T03:50:30;26.57;;;11.50;;
36551;SDS011;22559;54.176;12.102;2024-03-22T03:52:55;19.37;;;11.47;;
36551;SDS011;22559;54.176;12.102;2024-03-22T03:55:22;16.60;;;10.43;;
36551;SDS011;22559;54.176;12.102;2024-03-22T03:57:49;20.37;;;11.80;;
36551;SDS011;22559;54.176;12.102;2024-03-22T04:00:15;21.13;;;11.03;;
36551;SDS011;22559;54.176;12.102;2024-03-22T04:02:41;19.20;;;10.87;;
36551;SDS011;22559;54.176;12.102;2024-03-22T04:05:07;19.13;;;10.87;;
36551;SDS011;22559;54.176;12.102;2024-03-22T04:07:33;20.90;;;11.33;;
36551;SDS011;22559;54.176;12.102;2024-03-22T04:09:58;21.77;;;11.97;;
36551;SDS011;22559;54.176;12.102;2024-03-22T04:12:25;20.23;;;11.77;;
36551;SDS011;22559;54.176;12.102;2024-03-22T04:14:51;16.73;;;10.80;;
36551;SDS011;22559;54.176;12.102;2024-03-22T04:17:17;18.90;;;11.60;;
36551;SDS011;22559;54.176;12.102;2024-03-22T04:19:43;18.37;;;10.77;;
36551;SDS011;22559;54.176;12.102;2024-03-22T04:22:09;21.33;;;11.57;;
36551;SDS011;22559;54.176;12.102;2024-03-22T04:24:34;20.70;;;11.43;;
36551;SDS011;22559;54.176;12.102;2024-03-22T04:27:00;16.73;;;10.33;;
36551;SDS011;22559;54.176;12.102;2024-03-22T04:29:26;17.50;;;10.60;;
36551;SDS011;22559;54.176;12.102;2024-03-22T04:31:51;21.17;;;11.13;;
36551;SDS011;22559;54.176;12.102;2024-03-22T04:34:17;18.93;;;11.57;;
36551;SDS011;22559;54.176;12.102;2024-03-22T04:36:42;16.87;;;10.80;;
36551;SDS011;22559;54.176;12.102;2024-03-22T04:39:08;20.73;;;11.83;;
36551;SDS011;22559;54.176;12.102;2024-03-22T04:41:35;19.30;;;12.90;;
36551;SDS011;22559;54.176;12.102;2024-03-22T04:44:00;20.60;;;12.60;;
36551;SDS011;22559;54.176;12.102;2024-03-22T04:46:26;20.80;;;11.97;;
36551;SDS011;22559;54.176;12.102;2024-03-22T04:48:52;19.70;;;11.93;;
36551;SDS011;22559;54.176;12.102;2024-03-22T04:51:17;21.13;;;13.07;;
36551;SDS011;22559;54.176;12.102;2024-03-22T04:53:43;21.90;;;12.60;;
36551;SDS011;22559;54.176;12.102;2024-03-22T04:56:09;21.40;;;12.90;;
36551;SDS011;22559;54.176;12.102;2024-03-22T04:58:35;21.13;;;13.00;;
36551;SDS011;22559;54.176;12.102;2024-03-22T05:01:00;27.10;;;12.83;;
36551;SDS011;22559;54.176;12.102;2024-03-22T05:03:26;22.40;;;12.93;;
36551;SDS011;22559;54.176;12.102;2024-03-22T05:05:52;20.77;;;12.83;;
36551;SDS011;22559;54.176;12.102;2024-03-22T05:08:18;20.17;;;12.40;;
36551;SDS011;22559;54.176;12.102;2024-03-22T05:10:43;24.03;;;13.50;;
36551;SDS011;22559;54.176;12.102;2024-03-22T05:13:09;25.03;;;13.53;;
36551;SDS011;22559;54.176;12.102;2024-03-22T05:15:35;26.83;;;14.27;;
36551;SDS011;22559;54.176;12.102;2024-03-22T05:18:01;23.53;;;13.47;;
36551;SDS011;22559;54.176;12.102;2024-03-22T05:20:26;25.73;;;14.27;;
36551;SDS011;22559;54.176;12.102;2024-03-22T05:22:52;30.73;;;15.43;;
36551;SDS011;22559;54.176;12.102;2024-03-22T05:25:18;28.77;;;15.17;;
36551;SDS011;22559;54.176;12.102;2024-03-22T05:27:44;29.50;;;14.90;;
36551;SDS011;22559;54.176;12.102;2024-03-22T05:30:10;30.60;;;15.87;;
36551;SDS011;22559;54.176;12.102;2024-03-22T05:32:37;33.10;;;16.93;;
36551;SDS011;22559;54.176;12.102;2024-03-22T05:35:03;30.60;;;15.73;;
36551;SDS011;22559;54.176;12.102;2024-03-22T05:37:29;32.43;;;15.77;;
36551;SDS011;22559;54.176;12.102;2024-03-22T05:39:55;28.70;;;15.60;;
36551;SDS011;22559;54.176;12.102;2024-03-22T05:42:21;33.43;;;17.20;;
36551;SDS011;22559;54.176;12.102;2024-03-22T05:44:47;34.17;;;18.10;;
36551;SDS011;22559;54.176;12.102;2024-03-22T05:47:13;35.90;;;18.07;;
36551;SDS011;22559;54.176;12.102;2024-03-22T05:49:39;30.97;;;16.40;;
36551;SDS011;22559;54.176;12.102;2024-03-22T05:52:04;33.63;;;16.80;;
36551;SDS011;22559;54.176;12.102;2024-03-22T05:54:30;30.47;;;17.43;;
36551;SDS011;22559;54.176;12.102;2024-03-22T05:56:56;32.90;;;18.17;;
36551;SDS011;22559;54.176;12.102;2024-03-22T05:59:21;35.03;;;17.50;;
36551;SDS011;22559;54.176;12.102;2024-03-22T06:01:47;29.30;;;16.43;;
36551;SDS011;22559;54.176;12.102;2024-03-22T06:04:13;28.13;;;16.83;;
36551;SDS011;22559;54.176;12.102;2024-03-22T06:06:38;33.67;;;18.57;;
36551;SDS011;22559;54.176;12.102;2024-03-22T06:09:04;33.47;;;17.97;;
36551;SDS011;22559;54.176;12.102;2024-03-22T06:11:34;33.13;;;18.27;;
36551;SDS011;22559;54.176;12.102;2024-03-22T06:14:00;39.37;;;19.13;;
36551;SDS011;22559;54.176;12.102;2024-03-22T06:16:25;35.63;;;18.57;;
36551;SDS011;22559;54.176;12.102;2024-03-22T06:18:51;31.20;;;17.77;;
36551;SDS011;22559;54.176;12.102;2024-03-22T06:21:17;32.87;;;18.20;;
36551;SDS011;22559;54.176;12.102;2024-03-22T06:23:49;35.83;;;18.47;;
36551;SDS011;22559;54.176;12.102;2024-03-22T06:26:15;32.97;;;18.13;;
36551;SDS011;22559;54.176;12.102;2024-03-22T06:28:41;31.90;;;17.53;;
36551;SDS011;22559;54.176;12.102;2024-03-22T06:31:06;33.80;;;18.10;;
36551;SDS011;22559;54.176;12.102;2024-03-22T06:33:32;35.97;;;19.77;;
36551;SDS011;22559;54.176;12.102;2024-03-22T06:35:58;30.33;;;19.07;;
36551;SDS011;22559;54.176;12.102;2024-03-22T06:38:24;38.70;;;19.83;;
36551;SDS011;22559;54.176;12.102;2024-03-22T06:40:50;36.37;;;18.90;;
36551;SDS011;22559;54.176;12.102;2024-03-22T06:43:16;34.07;;;19.30;;
36551;SDS011;22559;54.176;12.102;2024-03-22T06:45:41;33.37;;;18.17;;
36551;SDS011;22559;54.176;12.102;2024-03-22T06:48:07;31.47;;;18.73;;
36551;SDS011;22559;54.176;12.102;2024-03-22T06:50:33;39.57;;;21.33;;
36551;SDS011;22559;54.176;12.102;2024-03-22T06:52:58;36.93;;;21.30;;
36551;SDS011;22559;54.176;12.102;2024-03-22T06:55:24;35.50;;;19.57;;
36551;SDS011;22559;54.176;12.102;2024-03-22T06:57:49;35.10;;;18.87;;
36551;SDS011;22559;54.176;12.102;2024-03-22T07:00:17;34.20;;;19.03;;
36551;SDS011;22559;54.176;12.102;2024-03-22T07:02:43;32.63;;;19.37;;
36551;SDS011;22559;54.176;12.102;2024-03-22T07:05:09;34.40;;;19.67;;
36551;SDS011;22559;54.176;12.102;2024-03-22T07:07:35;35.80;;;20.13;;
36551;SDS011;22559;54.176;12.102;2024-03-22T07:10:02;38.00;;;19.63;;
36551;SDS011;22559;54.176;12.102;2024-03-22T07:12:28;40.70;;;21.90;;
36551;SDS011;22559;54.176;12.102;2024-03-22T07:14:54;41.33;;;21.53;;
36551;SDS011;22559;54.176;12.102;2024-03-22T07:17:21;40.50;;;22.73;;
36551;SDS011;22559;54.176;12.102;2024-03-22T07:19:52;41.10;;;22.47;;
36551;SDS011;22559;54.176;12.102;2024-03-22T07:22:19;39.80;;;22.43;;
36551;SDS011;22559;54.176;12.102;2024-03-22T07:24:45;45.23;;;23.17;;
36551;SDS011;22559;54.176;12.102;2024-03-22T07:27:12;42.90;;;24.00;;
36551;SDS011;22559;54.176;12.102;2024-03-22T07:29:39;40.43;;;23.20;;
36551;SDS011;22559;54.176;12.102;2024-03-22T07:32:04;45.87;;;24.77;;
36551;SDS011;22559;54.176;12.102;2024-03-22T07:34:30;44.63;;;25.17;;
36551;SDS011;22559;54.176;12.102;2024-03-22T07:36:56;43.10;;;25.03;;
36551;SDS011;22559;54.176;12.102;2024-03-22T07:39:22;46.70;;;23.00;;
36551;SDS011;22559;54.176;12.102;2024-03-22T07:41:48;43.47;;;23.87;;
36551;SDS011;22559;54.176;12.102;2024-03-22T07:44:14;42.10;;;24.17;;
36551;SDS011;22559;54.176;12.102;2024-03-22T07:46:42;41.63;;;22.73;;
36551;SDS011;22559;54.176;12.102;2024-03-22T07:49:11;44.43;;;23.33;;
36551;SDS011;22559;54.176;12.102;2024-03-22T07:51:37;45.43;;;24.17;;
36551;SDS011;22559;54.176;12.102;2024-03-22T07:54:03;39.57;;;22.43;;
36551;SDS011;22559;54.176;12.102;2024-03-22T07:56:28;38.23;;;22.40;;
36551;SDS011;22559;54.176;12.102;2024-03-22T07:58:54;40.57;;;23.83;;
36551;SDS011;22559;54.176;12.102;2024-03-22T08:01:20;44.37;;;24.10;;
36551;SDS011;22559;54.176;12.102;2024-03-22T08:03:46;41.03;;;23.43;;
36551;SDS011;22559;54.176;12.102;2024-03-22T08:06:12;41.40;;;24.30;;
36551;SDS011;22559;54.176;12.102;2024-03-22T08:08:37;42.87;;;23.80;;
36551;SDS011;22559;54.176;12.102;2024-03-22T08:11:03;38.97;;;23.07;;
36551;SDS011;22559;54.176;12.102;2024-03-22T08:13:29;42.10;;;24.00;;
36551;SDS011;22559;54.176;12.102;2024-03-22T08:15:54;40.90;;;24.53;;
36551;SDS011;22559;54.176;12.102;2024-03-22T08:18:20;41.30;;;23.83;;
36551;SDS011;22559;54.176;12.102;2024-03-22T08:20:45;44.63;;;24.57;;
36551;SDS011;22559;54.176;12.102;2024-03-22T08:23:11;41.97;;;25.33;;
36551;SDS011;22559;54.176;12.102;2024-03-22T08:25:37;41.50;;;24.03;;
36551;SDS011;22559;54.176;12.102;2024-03-22T08:28:03;45.93;;;26.30;;
36551;SDS011;22559;54.176;12.102;2024-03-22T08:30:29;47.97;;;25.30;;
36551;SDS011;22559;54.176;12.102;2024-03-22T08:32:55;41.93;;;24.80;;
36551;SDS011;22559;54.176;12.102;2024-03-22T08:35:20;44.20;;;25.80;;
36551;SDS011;22559;54.176;12.102;2024-03-22T08:37:46;40.43;;;24.90;;
36551;SDS011;22559;54.176;12.102;2024-03-22T08:40:12;47.47;;;27.17;;
36551;SDS011;22559;54.176;12.102;2024-03-22T08:42:39;49.30;;;26.13;;
36551;SDS011;22559;54.176;12.102;2024-03-22T08:45:05;45.47;;;25.57;;
36551;SDS011;22559;54.176;12.102;2024-03-22T08:47:31;46.60;;;25.90;;
36551;SDS011;22559;54.176;12.102;2024-03-22T08:49:58;49.00;;;26.20;;
36551;SDS011;22559;54.176;12.102;2024-03-22T08:52:24;45.13;;;26.20;;
36551;SDS011;22559;54.176;12.102;2024-03-22T08:54:50;47.83;;;27.10;;
36551;SDS011;22559;54.176;12.102;2024-03-22T08:57:17;47.30;;;26.87;;
36551;SDS011;22559;54.176;12.102;2024-03-22T08:59:43;49.67;;;26.63;;
36551;SDS011;22559;54.176;12.102;2024-03-22T09:02:09;51.50;;;27.97;;
36551;SDS011;22559;54.176;12.102;2024-03-22T09:04:34;44.13;;;26.13;;
36551;SDS011;22559;54.176;12.102;2024-03-22T09:07:00;48.10;;;26.33;;
36551;SDS011;22559;54.176;12.102;2024-03-22T09:09:26;49.43;;;28.20;;
36551;SDS011;22559;54.176;12.102;2024-03-22T09:11:51;48.37;;;27.20;;
36551;SDS011;22559;54.176;12.102;2024-03-22T09:14:17;46.87;;;26.87;;
36551;SDS011;22559;54.176;12.102;2024-03-22T09:16:43;44.13;;;26.33;;
36551;SDS011;22559;54.176;12.102;2024-03-22T09:19:09;49.70;;;27.27;;
36551;SDS011;22559;54.176;12.102;2024-03-22T09:21:36;49.57;;;28.50;;
36551;SDS011;22559;54.176;12.102;2024-03-22T09:24:02;61.90;;;34.03;;
36551;SDS011;22559;54.176;12.102;2024-03-22T09:26:28;61.13;;;34.93;;
36551;SDS011;22559;54.176;12.102;2024-03-22T09:28:54;66.40;;;35.70;;
36551;SDS011;22559;54.176;12.102;2024-03-22T09:31:19;52.17;;;28.20;;
36551;SDS011;22559;54.176;12.102;2024-03-22T09:33:45;73.17;;;38.87;;
36551;SDS011;22559;54.176;12.102;2024-03-22T09:36:10;74.60;;;39.97;;
36551;SDS011;22559;54.176;12.102;2024-03-22T09:38:36;58.83;;;31.70;;
36551;SDS011;22559;54.176;12.102;2024-03-22T09:41:02;49.93;;;27.87;;
36551;SDS011;22559;54.176;12.102;2024-03-22T09:43:28;51.97;;;30.03;;
36551;SDS011;22559;54.176;12.102;2024-03-22T09:45:55;49.87;;;27.17;;
36551;SDS011;22559;54.176;12.102;2024-03-22T09:48:21;50.83;;;27.57;;
36551;SDS011;22559;54.176;12.102;2024-03-22T09:50:48;49.10;;;29.57;;
36551;SDS011;22559;54.176;12.102;2024-03-22T09:53:20;46.03;;;28.07;;
36551;SDS011;22559;54.176;12.102;2024-03-22T09:55:50;52.23;;;28.70;;
36551;SDS011;22559;54.176;12.102;2024-03-22T09:58:17;47.97;;;27.60;;
36551;SDS011;22559;54.176;12.102;2024-03-22T10:00:43;48.37;;;29.37;;
36551;SDS011;22559;54.176;12.102;2024-03-22T10:03:09;49.47;;;27.33;;
36551;SDS011;22559;54.176;12.102;2024-03-22T10:05:35;51.10;;;28.67;;
36551;SDS011;22559;54.176;12.102;2024-03-22T10:08:04;46.80;;;27.57;;
36551;SDS011;22559;54.176;12.102;2024-03-22T10:10:33;52.37;;;28.60;;
36551;SDS011;22559;54.176;12.102;2024-03-22T10:13:02;50.37;;;28.40;;
36551;SDS011;22559;54.176;12.102;2024-03-22T10:15:29;54.17;;;28.03;;
36551;SDS011;22559;54.176;12.102;2024-03-22T10:17:56;53.93;;;29.00;;
36551;SDS011;22559;54.176;12.102;2024-03-22T10:20:22;53.77;;;28.83;;
36551;SDS011;22559;54.176;12.102;2024-03-22T10:22:48;50.00;;;28.07;;
36551;SDS011;22559;54.176;12.102;2024-03-22T10:25:22;49.10;;;27.73;;
36551;SDS011;22559;54.176;12.102;2024-03-22T10:27:48;46.00;;;27.43;;
36551;SDS011;22559;54.176;12.102;2024-03-22T10:30:15;48.43;;;28.97;;
36551;SDS011;22559;54.176;12.102;2024-03-22T10:32:42;49.80;;;28.87;;
36551;SDS011;22559;54.176;12.102;2024-03-22T10:35:11;47.90;;;29.40;;
36551;SDS011;22559;54.176;12.102;2024-03-22T10:37:38;53.63;;;29.27;;
36551;SDS011;22559;54.176;12.102;2024-03-22T10:40:04;54.17;;;29.27;;
36551;SDS011;22559;54.176;12.102;2024-03-22T10:42:34;60.10;;;30.50;;
36551;SDS011;22559;54.176;12.102;2024-03-22T10:45:10;59.97;;;31.53;;
36551;SDS011;22559;54.176;12.102;2024-03-22T10:47:37;64.97;;;32.50;;
36551;SDS011;22559;54.176;12.102;2024-03-22T10:50:21;66.77;;;34.03;;
36551;SDS011;22559;54.176;12.102;2024-03-22T10:52:51;57.33;;;31.13;;
36551;SDS011;22559;54.176;12.102;2024-03-22T10:55:33;62.07;;;32.00;;
36551;SDS011;22559;54.176;12.102;2024-03-22T10:58:02;62.37;;;31.53;;
36551;SDS011;22559;54.176;12.102;2024-03-22T11:00:29;61.43;;;33.00;;
36551;SDS011;22559;54.176;12.102;2024-03-22T11:02:55;62.73;;;32.50;;
36551;SDS011;22559;54.176;12.102;2024-03-22T11:05:21;63.40;;;32.47;;
36551;SDS011;22559;54.176;12.102;2024-03-22T11:07:47;59.10;;;32.23;;
36551;SDS011;22559;54.176;12.102;2024-03-22T11:10:13;58.77;;;30.53;;
36551;SDS011;22559;54.176;12.102;2024-03-22T11:12:39;58.33;;;31.93;;
36551;SDS011;22559;54.176;12.102;2024-03-22T11:15:06;60.20;;;30.67;;
36551;SDS011;22559;54.176;12.102;2024-03-22T11:17:32;59.10;;;29.83;;
36551;SDS011;22559;54.176;12.102;2024-03-22T11:19:58;57.20;;;30.53;;
36551;SDS011;22559;54.176;12.102;2024-03-22T11:22:25;57.33;;;31.53;;
36551;SDS011;22559;54.176;12.102;2024-03-22T11:24:51;53.37;;;28.17;;
36551;SDS011;22559;54.176;12.102;2024-03-22T11:27:17;51.30;;;29.30;;
36551;SDS011;22559;54.176;12.102;2024-03-22T11:29:44;52.23;;;28.70;;
36551;SDS011;22559;54.176;12.102;2024-03-22T11:32:11;51.73;;;27.63;;
36551;SDS011;22559;54.176;12.102;2024-03-22T11:34:37;49.13;;;28.13;;
36551;SDS011;22559;54.176;12.102;2024-03-22T11:37:07;50.70;;;28.03;;
36551;SDS011;22559;54.176;12.102;2024-03-22T11:39:35;48.43;;;27.87;;
36551;SDS011;22559;54.176;12.102;2024-03-22T11:42:02;48.50;;;27.70;;
36551;SDS011;22559;54.176;12.102;2024-03-22T11:44:29;45.60;;;27.33;;
36551;SDS011;22559;54.176;12.102;2024-03-22T11:46:56;40.93;;;23.80;;
36551;SDS011;22559;54.176;12.102;2024-03-22T11:49:22;44.77;;;24.30;;
36551;SDS011;22559;54.176;12.102;2024-03-22T11:51:48;42.37;;;24.53;;
36551;SDS011;22559;54.176;12.102;2024-03-22T11:54:13;42.30;;;24.60;;
36551;SDS011;22559;54.176;12.102;2024-03-22T11:56:39;41.13;;;25.70;;
36551;SDS011;22559;54.176;12.102;2024-03-22T11:59:06;41.97;;;23.37;;
36551;SDS011;22559;54.176;12.102;2024-03-22T12:01:32;38.80;;;22.83;;
36551;SDS011;22559;54.176;12.102;2024-03-22T12:03:58;44.30;;;25.57;;
36551;SDS011;22559;54.176;12.102;2024-03-22T12:06:24;43.50;;;25.60;;
36551;SDS011;22559;54.176;12.102;2024-03-22T12:08:50;44.00;;;24.50;;
36551;SDS011;22559;54.176;12.102;2024-03-22T12:11:15;36.53;;;21.93;;
36551;SDS011;22559;54.176;12.102;2024-03-22T12:13:41;40.60;;;23.70;;
36551;SDS011;22559;54.176;12.102;2024-03-22T12:16:07;39.63;;;22.80;;
36551;SDS011;22559;54.176;12.102;2024-03-22T12:18:33;39.63;;;22.60;;
36551;SDS011;22559;54.176;12.102;2024-03-22T12:20:59;36.73;;;21.80;;
36551;SDS011;22559;54.176;12.102;2024-03-22T12:23:25;39.40;;;21.60;;
36551;SDS011;22559;54.176;12.102;2024-03-22T12:25:51;39.43;;;22.13;;
36551;SDS011;22559;54.176;12.102;2024-03-22T12:28:17;37.67;;;21.37;;
36551;SDS011;22559;54.176;12.102;2024-03-22T12:30:43;33.43;;;20.53;;
36551;SDS011;22559;54.176;12.102;2024-03-22T12:33:09;36.43;;;21.23;;
36551;SDS011;22559;54.176;12.102;2024-03-22T12:35:44;33.30;;;20.67;;
36551;SDS011;22559;54.176;12.102;2024-03-22T12:38:11;36.20;;;22.37;;
36551;SDS011;22559;54.176;12.102;2024-03-22T12:40:38;36.10;;;21.37;;
36551;SDS011;22559;54.176;12.102;2024-03-22T12:43:04;35.77;;;21.63;;
36551;SDS011;22559;54.176;12.102;2024-03-22T12:45:30;32.77;;;19.73;;
36551;SDS011;22559;54.176;12.102;2024-03-22T12:47:57;32.03;;;19.57;;
36551;SDS011;22559;54.176;12.102;2024-03-22T12:50:23;29.10;;;17.13;;
36551;SDS011;22559;54.176;12.102;2024-03-22T12:52:49;31.67;;;18.37;;
36551;SDS011;22559;54.176;12.102;2024-03-22T12:55:15;35.00;;;18.77;;
36551;SDS011;22559;54.176;12.102;2024-03-22T12:57:41;29.67;;;18.13;;
36551;SDS011;22559;54.176;12.102;2024-03-22T13:00:08;26.90;;;16.73;;
36551;SDS011;22559;54.176;12.102;2024-03-22T13:02:38;26.03;;;16.67;;
36551;SDS011;22559;54.176;12.102;2024-03-22T13:05:04;21.40;;;13.93;;
36551;SDS011;22559;54.176;12.102;2024-03-22T13:07:30;26.33;;;16.43;;
36551;SDS011;22559;54.176;12.102;2024-03-22T13:09:56;28.20;;;16.03;;
36551;SDS011;22559;54.176;12.102;2024-03-22T13:12:21;27.73;;;14.70;;
36551;SDS011;22559;54.176;12.102;2024-03-22T13:14:47;25.03;;;14.40;;
36551;SDS011;22559;54.176;12.102;2024-03-22T13:17:13;20.77;;;13.87;;
36551;SDS011;22559;54.176;12.102;2024-03-22T13:19:38;21.47;;;12.97;;
36551;SDS011;22559;54.176;12.102;2024-03-22T13:22:04;20.73;;;12.27;;
36551;SDS011;22559;54.176;12.102;2024-03-22T13:24:30;21.70;;;12.97;;
36551;SDS011;22559;54.176;12.102;2024-03-22T13:26:55;21.37;;;12.23;;
36551;SDS011;22559;54.176;12.102;2024-03-22T13:29:21;21.80;;;12.90;;
36551;SDS011;22559;54.176;12.102;2024-03-22T13:31:50;20.83;;;12.73;;
36551;SDS011;22559;54.176;12.102;2024-03-22T13:34:17;21.07;;;11.80;;
36551;SDS011;22559;54.176;12.102;2024-03-22T13:36:42;22.03;;;12.93;;
36551;SDS011;22559;54.176;12.102;2024-03-22T13:39:08;19.23;;;11.70;;
36551;SDS011;22559;54.176;12.102;2024-03-22T13:41:35;18.40;;;11.57;;
36551;SDS011;22559;54.176;12.102;2024-03-22T13:44:01;19.20;;;11.87;;
36551;SDS011;22559;54.176;12.102;2024-03-22T13:46:28;19.13;;;11.03;;
36551;SDS011;22559;54.176;12.102;2024-03-22T13:48:54;17.47;;;11.17;;
36551;SDS011;22559;54.176;12.102;2024-03-22T13:51:21;17.20;;;11.27;;
36551;SDS011;22559;54.176;12.102;2024-03-22T13:53:46;14.60;;;9.77;;
36551;SDS011;22559;54.176;12.102;2024-03-22T13:56:12;14.57;;;9.53;;
36551;SDS011;22559;54.176;12.102;2024-03-22T13:58:38;13.03;;;8.47;;
36551;SDS011;22559;54.176;12.102;2024-03-22T14:01:03;10.57;;;7.57;;
36551;SDS011;22559;54.176;12.102;2024-03-22T14:03:30;9.70;;;6.53;;